sensor_id;sensor_type;location;lat;lon;timestamp;pressure;altitude;pressure_sealevel;temperature;humidity
25130;BME280;13308;50.860;13.664;2022-10-17T05:54:55;97521.19;;;16.64;100.00
25130;BME280;13308;50.860;13.664;2022-10-17T05:57:24;97524.88;;;16.73;100.00
25130;BME280;13308;50.860;13.664;2022-10-17T05:59:49;97526.81;;;16.60;100.00
25130;BME280;13308;50.860;13.664;2022-10-17T06:02:18;97521.25;;;16.60;100.00
25130;BME280;13308;50.860;13.664;2022-10-17T06:04:43;97532.88;;;16.71;100.00
25130;BME280;13308;50.860;13.664;2022-10-17T06:07:11;97532.22;;;16.67;100.00
25130;BME280;13308;50.860;13.664;2022-10-17T06:09:38;97536.41;;;16.59;100.00
25130;BME280;13308;50.860;13.664;2022-10-17T06:12:05;97543.16;;;16.74;100.00
25130;BME280;13308;50.860;13.664;2022-10-17T06:14:31;97547.72;;;16.81;100.00
25130;BME280;13308;50.860;13.664;2022-10-17T06:17:00;97547.59;;;16.72;100.00
25130;BME280;13308;50.860;13.664;2022-10-17T06:19:25;97551.75;;;16.80;100.00
25130;BME280;13308;50.860;13.664;2022-10-17T06:21:51;97563.47;;;16.87;100.00
25130;BME280;13308;50.860;13.664;2022-10-17T06:24:20;97568.94;;;16.78;100.00
25130;BME280;13308;50.860;13.664;2022-10-17T06:26:45;97572.47;;;16.79;100.00
25130;BME280;13308;50.860;13.664;2022-10-17T06:29:13;97571.00;;;16.74;100.00
25130;BME280;13308;50.860;13.664;2022-10-17T06:31:45;97574.63;;;16.87;100.00
25130;BME280;13308;50.860;13.664;2022-10-17T06:34:11;97584.97;;;16.87;100.00
25130;BME280;13308;50.860;13.664;2022-10-17T06:36:37;97587.13;;;16.95;100.00
25130;BME280;13308;50.860;13.664;2022-10-17T06:39:03;97590.59;;;16.99;100.00
25130;BME280;13308;50.860;13.664;2022-10-17T06:41:36;97594.75;;;17.07;99.16
25130;BME280;13308;50.860;13.664;2022-10-17T06:44:06;97604.16;;;17.26;98.68
25130;BME280;13308;50.860;13.664;2022-10-17T06:46:43;97601.22;;;17.45;97.48
25130;BME280;13308;50.860;13.664;2022-10-17T06:49:11;97596.31;;;17.62;95.80
25130;BME280;13308;50.860;13.664;2022-10-17T06:51:47;97595.22;;;17.72;94.79
25130;BME280;13308;50.860;13.664;2022-10-17T06:54:15;97603.78;;;17.77;94.26
25130;BME280;13308;50.860;13.664;2022-10-17T06:57:01;97601.56;;;17.97;92.80
25130;BME280;13308;50.860;13.664;2022-10-17T06:59:44;97605.69;;;18.05;93.06
25130;BME280;13308;50.860;13.664;2022-10-17T07:02:15;97607.25;;;18.19;91.82
25130;BME280;13308;50.860;13.664;2022-10-17T07:04:41;97613.81;;;18.37;89.36
25130;BME280;13308;50.860;13.664;2022-10-17T07:07:11;97616.16;;;18.39;89.71
25130;BME280;13308;50.860;13.664;2022-10-17T07:09:36;97616.03;;;18.42;90.22
25130;BME280;13308;50.860;13.664;2022-10-17T07:12:01;97629.44;;;18.47;89.42
25130;BME280;13308;50.860;13.664;2022-10-17T07:14:27;97627.06;;;18.58;88.07
25130;BME280;13308;50.860;13.664;2022-10-17T07:16:57;97620.91;;;18.63;87.26
25130;BME280;13308;50.860;13.664;2022-10-17T07:19:24;97625.84;;;18.59;88.84
25130;BME280;13308;50.860;13.664;2022-10-17T07:21:49;97618.41;;;18.78;87.42
25130;BME280;13308;50.860;13.664;2022-10-17T07:24:15;97632.63;;;18.92;87.88
25130;BME280;13308;50.860;13.664;2022-10-17T07:26:44;97629.22;;;18.88;87.84
25130;BME280;13308;50.860;13.664;2022-10-17T07:29:10;97627.72;;;18.96;87.14
25130;BME280;13308;50.860;13.664;2022-10-17T07:31:40;97626.81;;;18.99;87.06
25130;BME280;13308;50.860;13.664;2022-10-17T07:34:06;97637.53;;;19.00;88.02
25130;BME280;13308;50.860;13.664;2022-10-17T07:36:31;97644.31;;;19.12;86.16
25130;BME280;13308;50.860;13.664;2022-10-17T07:38:59;97638.16;;;19.17;86.41
25130;BME280;13308;50.860;13.664;2022-10-17T07:41:25;97647.66;;;19.19;86.48
25130;BME280;13308;50.860;13.664;2022-10-17T07:43:50;97633.88;;;19.25;85.83
25130;BME280;13308;50.860;13.664;2022-10-17T07:46:20;97639.34;;;19.28;86.02
25130;BME280;13308;50.860;13.664;2022-10-17T07:48:45;97644.53;;;19.39;85.67
25130;BME280;13308;50.860;13.664;2022-10-17T07:51:11;97648.69;;;19.56;84.88
25130;BME280;13308;50.860;13.664;2022-10-17T07:53:37;97646.09;;;19.61;84.57
25130;BME280;13308;50.860;13.664;2022-10-17T07:56:05;97644.28;;;19.76;82.85
25130;BME280;13308;50.860;13.664;2022-10-17T07:58:31;97661.91;;;19.86;82.39
25130;BME280;13308;50.860;13.664;2022-10-17T08:01:00;97650.31;;;19.96;82.55
25130;BME280;13308;50.860;13.664;2022-10-17T08:03:26;97657.00;;;19.99;81.94
25130;BME280;13308;50.860;13.664;2022-10-17T08:05:51;97654.94;;;20.21;80.47
25130;BME280;13308;50.860;13.664;2022-10-17T08:08:16;97653.09;;;20.27;79.88
25130;BME280;13308;50.860;13.664;2022-10-17T08:10:42;97649.28;;;20.51;79.33
25130;BME280;13308;50.860;13.664;2022-10-17T08:13:07;97646.69;;;20.84;77.16
25130;BME280;13308;50.860;13.664;2022-10-17T08:15:35;97659.22;;;21.19;75.52
25130;BME280;13308;50.860;13.664;2022-10-17T08:18:01;97655.13;;;21.38;74.19
25130;BME280;13308;50.860;13.664;2022-10-17T08:20:26;97663.84;;;21.49;72.55
25130;BME280;13308;50.860;13.664;2022-10-17T08:22:52;97661.34;;;21.51;72.75
25130;BME280;13308;50.860;13.664;2022-10-17T08:25:18;97671.03;;;21.68;70.60
25130;BME280;13308;50.860;13.664;2022-10-17T08:27:44;97669.59;;;21.81;70.70
25130;BME280;13308;50.860;13.664;2022-10-17T08:30:10;97670.31;;;22.00;70.47
25130;BME280;13308;50.860;13.664;2022-10-17T08:32:35;97670.59;;;22.11;68.95
25130;BME280;13308;50.860;13.664;2022-10-17T08:35:00;97664.63;;;22.18;67.46
25130;BME280;13308;50.860;13.664;2022-10-17T08:37:26;97668.50;;;22.20;67.97
25130;BME280;13308;50.860;13.664;2022-10-17T08:39:51;97670.22;;;22.27;66.69
25130;BME280;13308;50.860;13.664;2022-10-17T08:45:20;97667.94;;;22.96;65.54
25130;BME280;13308;50.860;13.664;2022-10-17T08:47:52;97665.31;;;23.16;62.28
25130;BME280;13308;50.860;13.664;2022-10-17T08:50:45;97662.44;;;23.25;62.08
25130;BME280;13308;50.860;13.664;2022-10-17T08:55:48;97675.16;;;23.73;61.16
25130;BME280;13308;50.860;13.664;2022-10-17T08:58:27;97664.88;;;23.99;60.30
25130;BME280;13308;50.860;13.664;2022-10-17T09:01:03;97667.88;;;24.10;57.52
25130;BME280;13308;50.860;13.664;2022-10-17T09:03:49;97671.47;;;24.10;58.01
25130;BME280;13308;50.860;13.664;2022-10-17T09:06:26;97674.47;;;24.21;58.25
25130;BME280;13308;50.860;13.664;2022-10-17T09:09:13;97672.63;;;24.18;58.50
25130;BME280;13308;50.860;13.664;2022-10-17T09:11:46;97668.13;;;24.41;56.93
25130;BME280;13308;50.860;13.664;2022-10-17T09:14:35;97673.63;;;24.15;56.01
25130;BME280;13308;50.860;13.664;2022-10-17T09:20:03;97674.31;;;23.96;58.64
25130;BME280;13308;50.860;13.664;2022-10-17T09:22:40;97674.38;;;23.58;60.54
25130;BME280;13308;50.860;13.664;2022-10-17T09:25:11;97679.91;;;23.67;59.24
25130;BME280;13308;50.860;13.664;2022-10-17T09:27:51;97670.97;;;23.83;59.23
25130;BME280;13308;50.860;13.664;2022-10-17T09:30:39;97669.34;;;24.05;58.82
25130;BME280;13308;50.860;13.664;2022-10-17T09:33:26;97669.31;;;24.20;60.04
25130;BME280;13308;50.860;13.664;2022-10-17T09:35:53;97672.91;;;24.35;56.81
25130;BME280;13308;50.860;13.664;2022-10-17T09:38:23;97678.53;;;24.64;56.01
25130;BME280;13308;50.860;13.664;2022-10-17T09:40:59;97673.16;;;24.86;55.29
25130;BME280;13308;50.860;13.664;2022-10-17T09:43:25;97684.63;;;24.97;56.00
25130;BME280;13308;50.860;13.664;2022-10-17T09:46:13;97688.38;;;25.48;53.97
25130;BME280;13308;50.860;13.664;2022-10-17T09:48:45;97683.72;;;25.91;53.59
25130;BME280;13308;50.860;13.664;2022-10-17T09:51:13;97682.66;;;26.14;54.35
25130;BME280;13308;50.860;13.664;2022-10-17T09:53:41;97679.94;;;26.30;51.48
25130;BME280;13308;50.860;13.664;2022-10-17T09:56:13;97690.78;;;26.63;52.22
25130;BME280;13308;50.860;13.664;2022-10-17T09:58:50;97689.91;;;26.88;52.71
25130;BME280;13308;50.860;13.664;2022-10-17T10:01:27;97689.19;;;26.98;50.17
25130;BME280;13308;50.860;13.664;2022-10-17T10:04:16;97687.47;;;27.12;50.30
25130;BME280;13308;50.860;13.664;2022-10-17T10:07:01;97686.28;;;27.29;49.58
25130;BME280;13308;50.860;13.664;2022-10-17T10:09:30;97689.13;;;28.10;49.64
25130;BME280;13308;50.860;13.664;2022-10-17T10:11:58;97702.78;;;28.06;48.43
25130;BME280;13308;50.860;13.664;2022-10-17T10:14:33;97697.66;;;28.54;47.02
25130;BME280;13308;50.860;13.664;2022-10-17T10:17:01;97695.53;;;28.93;49.06
25130;BME280;13308;50.860;13.664;2022-10-17T10:19:35;97699.72;;;28.48;47.73
25130;BME280;13308;50.860;13.664;2022-10-17T10:22:19;97691.44;;;28.61;45.84
25130;BME280;13308;50.860;13.664;2022-10-17T10:25:15;97704.34;;;28.73;47.48
25130;BME280;13308;50.860;13.664;2022-10-17T10:27:42;97703.00;;;29.12;46.92
25130;BME280;13308;50.860;13.664;2022-10-17T10:30:20;97699.59;;;29.25;46.73
25130;BME280;13308;50.860;13.664;2022-10-17T10:32:48;97693.47;;;29.04;46.00
25130;BME280;13308;50.860;13.664;2022-10-17T10:35:18;97694.44;;;29.23;45.18
25130;BME280;13308;50.860;13.664;2022-10-17T10:37:50;97695.03;;;28.89;46.33
25130;BME280;13308;50.860;13.664;2022-10-17T10:42:48;97697.34;;;28.19;46.65
25130;BME280;13308;50.860;13.664;2022-10-17T10:50:52;97693.97;;;27.98;47.71
25130;BME280;13308;50.860;13.664;2022-10-17T10:53:24;97692.50;;;28.47;47.83
25130;BME280;13308;50.860;13.664;2022-10-17T10:56:00;97678.00;;;28.01;47.06
25130;BME280;13308;50.860;13.664;2022-10-17T11:04:03;97684.47;;;28.18;45.97
25130;BME280;13308;50.860;13.664;2022-10-17T11:06:36;97682.13;;;28.00;47.34
25130;BME280;13308;50.860;13.664;2022-10-17T11:09:25;97679.03;;;27.98;46.96
25130;BME280;13308;50.860;13.664;2022-10-17T11:11:58;97677.22;;;28.11;46.09
25130;BME280;13308;50.860;13.664;2022-10-17T11:14:37;97670.00;;;28.65;46.00
25130;BME280;13308;50.860;13.664;2022-10-17T11:17:19;97684.22;;;28.71;44.80
25130;BME280;13308;50.860;13.664;2022-10-17T11:22:47;97676.97;;;28.81;44.13
25130;BME280;13308;50.860;13.664;2022-10-17T11:25:21;97683.13;;;29.07;42.69
25130;BME280;13308;50.860;13.664;2022-10-17T11:27:53;97674.78;;;29.31;44.39
25130;BME280;13308;50.860;13.664;2022-10-17T11:30:20;97670.22;;;29.06;42.52
25130;BME280;13308;50.860;13.664;2022-10-17T11:32:51;97678.09;;;29.46;42.69
25130;BME280;13308;50.860;13.664;2022-10-17T11:35:37;97669.06;;;29.88;42.84
25130;BME280;13308;50.860;13.664;2022-10-17T11:40:35;97676.91;;;29.76;40.50
25130;BME280;13308;50.860;13.664;2022-10-17T11:43:07;97683.19;;;29.58;41.43
25130;BME280;13308;50.860;13.664;2022-10-17T11:45:43;97675.16;;;30.08;40.83
25130;BME280;13308;50.860;13.664;2022-10-17T11:48:22;97671.94;;;30.23;43.53
25130;BME280;13308;50.860;13.664;2022-10-17T11:51:01;97667.56;;;30.51;40.31
25130;BME280;13308;50.860;13.664;2022-10-17T11:53:45;97669.25;;;30.71;40.39
25130;BME280;13308;50.860;13.664;2022-10-17T11:56:13;97665.66;;;31.13;38.64
25130;BME280;13308;50.860;13.664;2022-10-17T11:58:56;97661.63;;;31.03;41.36
25130;BME280;13308;50.860;13.664;2022-10-17T12:01:45;97663.97;;;31.47;40.45
25130;BME280;13308;50.860;13.664;2022-10-17T12:07:07;97641.97;;;30.46;41.25
25130;BME280;13308;50.860;13.664;2022-10-17T12:09:54;97640.53;;;31.11;40.24
25130;BME280;13308;50.860;13.664;2022-10-17T12:12:29;97639.06;;;30.81;39.83
25130;BME280;13308;50.860;13.664;2022-10-17T12:18:16;97631.59;;;31.02;41.16
25130;BME280;13308;50.860;13.664;2022-10-17T12:20:41;97632.50;;;31.10;39.81
25130;BME280;13308;50.860;13.664;2022-10-17T12:25:58;97635.03;;;31.19;38.65
25130;BME280;13308;50.860;13.664;2022-10-17T12:28:43;97625.06;;;30.53;38.88
25130;BME280;13308;50.860;13.664;2022-10-17T12:31:20;97613.03;;;30.42;39.06
25130;BME280;13308;50.860;13.664;2022-10-17T12:55:05;97592.47;;;28.98;43.45
25130;BME280;13308;50.860;13.664;2022-10-17T12:57:56;97585.78;;;28.95;45.10
25130;BME280;13308;50.860;13.664;2022-10-17T13:00:31;97590.66;;;28.95;43.00
25130;BME280;13308;50.860;13.664;2022-10-17T13:03:15;97589.63;;;29.55;43.98
25130;BME280;13308;50.860;13.664;2022-10-17T13:05:54;97589.28;;;29.99;43.41
25130;BME280;13308;50.860;13.664;2022-10-17T13:08:23;97591.19;;;28.99;44.09
25130;BME280;13308;50.860;13.664;2022-10-17T13:10:51;97591.75;;;28.81;44.56
25130;BME280;13308;50.860;13.664;2022-10-17T13:13:21;97592.38;;;29.20;43.91
25130;BME280;13308;50.860;13.664;2022-10-17T13:15:53;97584.97;;;29.06;43.53
25130;BME280;13308;50.860;13.664;2022-10-17T13:18:24;97593.56;;;29.41;43.88
25130;BME280;13308;50.860;13.664;2022-10-17T13:21:03;97592.63;;;29.68;43.37
25130;BME280;13308;50.860;13.664;2022-10-17T13:23:34;97587.13;;;29.35;43.48
25130;BME280;13308;50.860;13.664;2022-10-17T13:26:23;97586.81;;;29.44;43.67
25130;BME280;13308;50.860;13.664;2022-10-17T13:29:11;97591.75;;;29.84;42.24
25130;BME280;13308;50.860;13.664;2022-10-17T13:31:42;97594.47;;;30.00;42.36
25130;BME280;13308;50.860;13.664;2022-10-17T13:34:20;97588.31;;;29.56;42.52
25130;BME280;13308;50.860;13.664;2022-10-17T13:36:47;97590.41;;;28.93;44.12
25130;BME280;13308;50.860;13.664;2022-10-17T13:39:17;97580.56;;;29.05;44.43
25130;BME280;13308;50.860;13.664;2022-10-17T13:41:43;97590.13;;;29.02;44.66
25130;BME280;13308;50.860;13.664;2022-10-17T13:44:26;97592.00;;;29.40;44.49
25130;BME280;13308;50.860;13.664;2022-10-17T13:46:53;97583.72;;;28.90;44.64
25130;BME280;13308;50.860;13.664;2022-10-17T13:49:32;97581.53;;;28.23;46.26
25130;BME280;13308;50.860;13.664;2022-10-17T13:51:59;97590.25;;;27.59;48.14
25130;BME280;13308;50.860;13.664;2022-10-17T13:54:39;97585.06;;;27.41;48.03
25130;BME280;13308;50.860;13.664;2022-10-17T13:57:17;97587.19;;;27.90;47.30
25130;BME280;13308;50.860;13.664;2022-10-17T13:59:43;97588.78;;;26.52;50.47
25130;BME280;13308;50.860;13.664;2022-10-17T14:02:25;97582.97;;;25.68;52.40
25130;BME280;13308;50.860;13.664;2022-10-17T14:07:37;97580.88;;;24.03;56.22
25130;BME280;13308;50.860;13.664;2022-10-17T14:10:04;97578.78;;;23.54;59.15
25130;BME280;13308;50.860;13.664;2022-10-17T14:12:32;97577.78;;;23.28;60.95
25130;BME280;13308;50.860;13.664;2022-10-17T14:14:58;97576.16;;;23.22;62.27
25130;BME280;13308;50.860;13.664;2022-10-17T14:17:28;97583.34;;;22.99;62.66
25130;BME280;13308;50.860;13.664;2022-10-17T14:20:00;97585.91;;;22.50;65.86
25130;BME280;13308;50.860;13.664;2022-10-17T14:22:28;97586.88;;;22.47;66.64
25130;BME280;13308;50.860;13.664;2022-10-17T14:24:54;97595.28;;;22.71;65.71
25130;BME280;13308;50.860;13.664;2022-10-17T14:27:37;97595.34;;;22.38;67.63
25130;BME280;13308;50.860;13.664;2022-10-17T14:32:54;97589.38;;;22.45;67.17
25130;BME280;13308;50.860;13.664;2022-10-17T14:35:20;97594.97;;;22.22;67.75
25130;BME280;13308;50.860;13.664;2022-10-17T14:37:48;97592.75;;;21.93;69.98
25130;BME280;13308;50.860;13.664;2022-10-17T14:40:20;97596.34;;;21.94;68.82
25130;BME280;13308;50.860;13.664;2022-10-17T14:42:47;97592.97;;;21.72;70.45
25130;BME280;13308;50.860;13.664;2022-10-17T14:45:16;97580.28;;;21.35;72.72
25130;BME280;13308;50.860;13.664;2022-10-17T14:47:50;97582.47;;;21.22;73.51
25130;BME280;13308;50.860;13.664;2022-10-17T14:50:25;97572.84;;;20.78;75.55
25130;BME280;13308;50.860;13.664;2022-10-17T14:55:38;97583.28;;;20.68;76.91
25130;BME280;13308;50.860;13.664;2022-10-17T14:58:17;97582.63;;;20.46;77.93
25130;BME280;13308;50.860;13.664;2022-10-17T15:00:45;97580.59;;;20.47;78.15
25130;BME280;13308;50.860;13.664;2022-10-17T15:03:11;97586.97;;;20.38;79.04
25130;BME280;13308;50.860;13.664;2022-10-17T15:05:36;97587.94;;;20.05;80.88
25130;BME280;13308;50.860;13.664;2022-10-17T15:08:01;97592.66;;;20.08;80.58
25130;BME280;13308;50.860;13.664;2022-10-17T15:10:32;97590.88;;;20.01;81.43
25130;BME280;13308;50.860;13.664;2022-10-17T15:12:58;97600.16;;;19.89;81.99
25130;BME280;13308;50.860;13.664;2022-10-17T15:15:25;97596.25;;;19.87;82.25
25130;BME280;13308;50.860;13.664;2022-10-17T15:17:51;97596.59;;;19.89;82.32
25130;BME280;13308;50.860;13.664;2022-10-17T15:20:16;97596.03;;;19.72;82.62
25130;BME280;13308;50.860;13.664;2022-10-17T15:22:42;97593.13;;;19.76;82.63
25130;BME280;13308;50.860;13.664;2022-10-17T15:25:07;97595.22;;;19.63;83.29
25130;BME280;13308;50.860;13.664;2022-10-17T15:27:33;97597.63;;;19.43;84.67
25130;BME280;13308;50.860;13.664;2022-10-17T15:29:58;97606.47;;;19.41;84.61
25130;BME280;13308;50.860;13.664;2022-10-17T15:32:24;97612.53;;;19.40;84.15
25130;BME280;13308;50.860;13.664;2022-10-17T15:34:49;97616.41;;;19.42;83.23
25130;BME280;13308;50.860;13.664;2022-10-17T15:37:20;97618.63;;;19.26;85.00
25130;BME280;13308;50.860;13.664;2022-10-17T15:39:51;97618.38;;;19.33;84.47
25130;BME280;13308;50.860;13.664;2022-10-17T15:42:19;97626.56;;;19.06;86.33
25130;BME280;13308;50.860;13.664;2022-10-17T15:44:45;97640.25;;;19.26;85.41
25130;BME280;13308;50.860;13.664;2022-10-17T15:47:21;97634.53;;;18.95;87.89
25130;BME280;13308;50.860;13.664;2022-10-17T15:49:48;97633.00;;;19.15;87.23
25130;BME280;13308;50.860;13.664;2022-10-17T15:52:13;97628.94;;;18.95;87.93
25130;BME280;13308;50.860;13.664;2022-10-17T15:54:38;97635.56;;;18.30;91.98
25130;BME280;13308;50.860;13.664;2022-10-17T15:57:04;97626.91;;;18.15;92.76
25130;BME280;13308;50.860;13.664;2022-10-17T15:59:32;97641.31;;;18.14;93.03
25130;BME280;13308;50.860;13.664;2022-10-17T16:01:58;97637.72;;;18.13;92.72
25130;BME280;13308;50.860;13.664;2022-10-17T16:04:24;97634.63;;;18.11;92.61
25130;BME280;13308;50.860;13.664;2022-10-17T16:06:51;97616.28;;;17.98;93.59
25130;BME280;13308;50.860;13.664;2022-10-17T16:09:17;97623.13;;;18.09;93.71
25130;BME280;13308;50.860;13.664;2022-10-17T16:11:43;97617.97;;;17.95;94.22
25130;BME280;13308;50.860;13.664;2022-10-17T16:14:11;97618.53;;;17.90;94.93
25130;BME280;13308;50.860;13.664;2022-10-17T16:16:37;97602.25;;;17.76;95.85
25130;BME280;13308;50.860;13.664;2022-10-17T16:19:03;97594.88;;;17.82;95.63
25130;BME280;13308;50.860;13.664;2022-10-17T16:21:32;97605.34;;;17.78;95.71
25130;BME280;13308;50.860;13.664;2022-10-17T16:23:58;97593.75;;;17.67;96.21
25130;BME280;13308;50.860;13.664;2022-10-17T16:26:25;97597.88;;;17.63;96.93
25130;BME280;13308;50.860;13.664;2022-10-17T16:28:51;97599.66;;;17.57;97.40
25130;BME280;13308;50.860;13.664;2022-10-17T16:31:26;97581.13;;;17.63;97.56
25130;BME280;13308;50.860;13.664;2022-10-17T16:33:57;97588.59;;;17.53;98.17
25130;BME280;13308;50.860;13.664;2022-10-17T16:36:22;97594.41;;;17.46;98.78
25130;BME280;13308;50.860;13.664;2022-10-17T16:38:48;97605.78;;;17.39;99.29
25130;BME280;13308;50.860;13.664;2022-10-17T16:43:51;97615.16;;;17.17;100.00
25130;BME280;13308;50.860;13.664;2022-10-17T16:46:17;97609.41;;;17.24;100.00
25130;BME280;13308;50.860;13.664;2022-10-17T16:48:44;97612.53;;;17.26;100.00
25130;BME280;13308;50.860;13.664;2022-10-17T16:51:10;97613.75;;;17.25;100.00
25130;BME280;13308;50.860;13.664;2022-10-17T16:53:36;97612.22;;;17.36;100.00
25130;BME280;13308;50.860;13.664;2022-10-17T16:56:09;97619.56;;;17.30;100.00
25130;BME280;13308;50.860;13.664;2022-10-17T16:58:35;97621.47;;;17.33;100.00
25130;BME280;13308;50.860;13.664;2022-10-17T17:01:02;97624.06;;;17.40;99.64
25130;BME280;13308;50.860;13.664;2022-10-17T17:03:28;97618.78;;;17.30;100.00
25130;BME280;13308;50.860;13.664;2022-10-17T17:05:53;97616.97;;;17.23;100.00
25130;BME280;13308;50.860;13.664;2022-10-17T17:08:18;97614.28;;;17.20;100.00
25130;BME280;13308;50.860;13.664;2022-10-17T17:10:45;97615.47;;;17.35;100.00
25130;BME280;13308;50.860;13.664;2022-10-17T17:13:10;97615.53;;;17.31;100.00
25130;BME280;13308;50.860;13.664;2022-10-17T17:15:36;97626.91;;;17.24;100.00
25130;BME280;13308;50.860;13.664;2022-10-17T17:18:03;97620.56;;;17.36;100.00
25130;BME280;13308;50.860;13.664;2022-10-17T17:20:28;97621.38;;;17.37;100.00
25130;BME280;13308;50.860;13.664;2022-10-17T17:22:54;97624.88;;;17.53;99.80
25130;BME280;13308;50.860;13.664;2022-10-17T17:25:20;97635.03;;;17.47;100.00
25130;BME280;13308;50.860;13.664;2022-10-17T17:27:46;97627.19;;;17.42;100.00
25130;BME280;13308;50.860;13.664;2022-10-17T17:30:11;97626.66;;;17.47;100.00
25130;BME280;13308;50.860;13.664;2022-10-17T17:32:36;97632.44;;;17.40;100.00
25130;BME280;13308;50.860;13.664;2022-10-17T17:35:02;97628.75;;;17.43;100.00
25130;BME280;13308;50.860;13.664;2022-10-17T17:37:27;97632.53;;;17.37;100.00
